sensor_id;sensor_type;location;lat;lon;timestamp;pressure;altitude;pressure_sealevel;temperature;humidity
75460;BME280;64039;53.060;9.342;2023-06-19T00:00:50;100741.03;;;20.20;81.95
75460;BME280;64039;53.060;9.342;2023-06-19T00:03:16;100746.41;;;20.15;80.68
75460;BME280;64039;53.060;9.342;2023-06-19T00:05:41;100743.75;;;20.17;80.43
75460;BME280;64039;53.060;9.342;2023-06-19T00:08:06;100741.97;;;20.17;79.51
75460;BME280;64039;53.060;9.342;2023-06-19T00:10:33;100739.41;;;20.14;78.67
75460;BME280;64039;53.060;9.342;2023-06-19T00:12:58;100742.88;;;20.16;78.64
75460;BME280;64039;53.060;9.342;2023-06-19T00:15:24;100739.31;;;20.17;77.77
75460;BME280;64039;53.060;9.342;2023-06-19T00:17:49;100737.44;;;20.24;77.55
75460;BME280;64039;53.060;9.342;2023-06-19T00:20:14;100740.13;;;20.21;77.12
75460;BME280;64039;53.060;9.342;2023-06-19T00:22:41;100730.56;;;20.15;76.57
75460;BME280;64039;53.060;9.342;2023-06-19T00:25:07;100731.44;;;20.16;76.31
75460;BME280;64039;53.060;9.342;2023-06-19T00:27:32;100722.63;;;20.17;76.56
75460;BME280;64039;53.060;9.342;2023-06-19T00:29:58;100724.38;;;20.18;76.36
75460;BME280;64039;53.060;9.342;2023-06-19T00:32:29;100711.16;;;20.16;76.36
75460;BME280;64039;53.060;9.342;2023-06-19T00:34:55;100717.34;;;20.15;76.59
75460;BME280;64039;53.060;9.342;2023-06-19T00:37:20;100717.44;;;20.12;76.93
75460;BME280;64039;53.060;9.342;2023-06-19T00:39:46;100714.78;;;20.10;76.70
75460;BME280;64039;53.060;9.342;2023-06-19T00:42:11;100708.69;;;20.08;76.75
75460;BME280;64039;53.060;9.342;2023-06-19T00:44:37;100711.34;;;20.07;77.37
75460;BME280;64039;53.060;9.342;2023-06-19T00:47:02;100706.94;;;20.07;77.52
75460;BME280;64039;53.060;9.342;2023-06-19T00:49:29;100706.09;;;20.05;77.77
75460;BME280;64039;53.060;9.342;2023-06-19T00:51:55;100714.88;;;20.07;78.07
75460;BME280;64039;53.060;9.342;2023-06-19T00:54:21;100708.75;;;20.05;77.60
75460;BME280;64039;53.060;9.342;2023-06-19T00:56:47;100702.59;;;20.03;77.53
75460;BME280;64039;53.060;9.342;2023-06-19T00:59:18;100707.88;;;20.03;77.52
75460;BME280;64039;53.060;9.342;2023-06-19T01:01:44;100706.09;;;20.05;77.42
75460;BME280;64039;53.060;9.342;2023-06-19T01:04:10;100705.28;;;20.02;77.30
75460;BME280;64039;53.060;9.342;2023-06-19T01:09:10;100696.50;;;20.00;76.77
75460;BME280;64039;53.060;9.342;2023-06-19T01:11:40;100694.00;;;19.93;76.20
75460;BME280;64039;53.060;9.342;2023-06-19T01:16:50;100690.47;;;19.94;75.85
75460;BME280;64039;53.060;9.342;2023-06-19T01:19:19;100676.38;;;19.95;75.88
75460;BME280;64039;53.060;9.342;2023-06-19T01:21:48;100675.47;;;19.95;75.71
75460;BME280;64039;53.060;9.342;2023-06-19T01:24:15;100669.34;;;19.94;76.40
75460;BME280;64039;53.060;9.342;2023-06-19T01:26:41;100678.09;;;19.97;76.54
75460;BME280;64039;53.060;9.342;2023-06-19T01:29:07;100673.72;;;19.94;76.89
75460;BME280;64039;53.060;9.342;2023-06-19T01:31:38;100664.09;;;19.93;76.70
75460;BME280;64039;53.060;9.342;2023-06-19T01:34:08;100659.78;;;19.87;76.90
75460;BME280;64039;53.060;9.342;2023-06-19T01:36:36;100675.66;;;19.84;76.99
75460;BME280;64039;53.060;9.342;2023-06-19T01:39:03;100656.44;;;19.76;76.12
75460;BME280;64039;53.060;9.342;2023-06-19T01:41:30;100662.44;;;19.84;75.82
75460;BME280;64039;53.060;9.342;2023-06-19T01:43:56;100670.47;;;19.79;75.03
75460;BME280;64039;53.060;9.342;2023-06-19T01:46:22;100661.66;;;19.80;74.95
75460;BME280;64039;53.060;9.342;2023-06-19T01:48:49;100660.78;;;19.80;75.50
75460;BME280;64039;53.060;9.342;2023-06-19T01:51:15;100666.88;;;19.84;75.75
75460;BME280;64039;53.060;9.342;2023-06-19T01:53:41;100659.81;;;19.84;75.12
75460;BME280;64039;53.060;9.342;2023-06-19T01:56:06;100654.59;;;19.81;75.29
75460;BME280;64039;53.060;9.342;2023-06-19T01:58:32;100652.88;;;19.78;75.01
75460;BME280;64039;53.060;9.342;2023-06-19T02:00:58;100650.22;;;19.80;74.46
75460;BME280;64039;53.060;9.342;2023-06-19T02:03:23;100647.69;;;19.75;74.18
75460;BME280;64039;53.060;9.342;2023-06-19T02:05:48;100645.84;;;19.77;74.34
75460;BME280;64039;53.060;9.342;2023-06-19T02:08:14;100646.69;;;19.79;75.17
75460;BME280;64039;53.060;9.342;2023-06-19T02:10:39;100644.94;;;19.78;74.67
75460;BME280;64039;53.060;9.342;2023-06-19T02:13:05;100644.06;;;19.79;74.67
75460;BME280;64039;53.060;9.342;2023-06-19T02:15:30;100644.09;;;19.78;74.58
75460;BME280;64039;53.060;9.342;2023-06-19T02:17:56;100640.56;;;19.77;74.79
75460;BME280;64039;53.060;9.342;2023-06-19T02:20:23;100636.25;;;19.73;75.60
75460;BME280;64039;53.060;9.342;2023-06-19T02:22:50;100632.66;;;19.77;76.17
75460;BME280;64039;53.060;9.342;2023-06-19T02:25:16;100631.69;;;19.82;76.53
75460;BME280;64039;53.060;9.342;2023-06-19T02:27:41;100630.81;;;19.81;76.25
75460;BME280;64039;53.060;9.342;2023-06-19T02:30:07;100623.91;;;19.75;76.29
75460;BME280;64039;53.060;9.342;2023-06-19T02:32:32;100618.63;;;19.75;75.35
75460;BME280;64039;53.060;9.342;2023-06-19T02:34:58;100617.81;;;19.70;75.14
75460;BME280;64039;53.060;9.342;2023-06-19T02:37:24;100623.09;;;19.70;74.84
75460;BME280;64039;53.060;9.342;2023-06-19T02:39:49;100614.41;;;19.65;75.33
75460;BME280;64039;53.060;9.342;2023-06-19T02:42:15;100625.84;;;19.66;74.37
75460;BME280;64039;53.060;9.342;2023-06-19T02:44:40;100620.69;;;19.59;73.93
75460;BME280;64039;53.060;9.342;2023-06-19T02:47:07;100612.69;;;19.64;74.40
75460;BME280;64039;53.060;9.342;2023-06-19T02:49:33;100614.41;;;19.65;74.07
75460;BME280;64039;53.060;9.342;2023-06-19T02:51:58;100611.78;;;19.65;74.34
75460;BME280;64039;53.060;9.342;2023-06-19T02:54:24;100623.25;;;19.64;73.16
75460;BME280;64039;53.060;9.342;2023-06-19T02:56:49;100615.31;;;19.64;73.22
75460;BME280;64039;53.060;9.342;2023-06-19T02:59:14;100607.44;;;19.61;72.88
75460;BME280;64039;53.060;9.342;2023-06-19T03:01:40;100611.81;;;19.63;72.69
75460;BME280;64039;53.060;9.342;2023-06-19T03:04:06;100604.81;;;19.62;73.01
75460;BME280;64039;53.060;9.342;2023-06-19T03:06:31;100605.59;;;19.66;73.40
75460;BME280;64039;53.060;9.342;2023-06-19T03:08:58;100603.84;;;19.65;73.95
75460;BME280;64039;53.060;9.342;2023-06-19T03:11:24;100603.00;;;19.63;74.25
75460;BME280;64039;53.060;9.342;2023-06-19T03:13:51;100601.28;;;19.62;74.75
75460;BME280;64039;53.060;9.342;2023-06-19T03:16:17;100597.81;;;19.60;74.54
75460;BME280;64039;53.060;9.342;2023-06-19T03:18:43;100602.13;;;19.64;73.06
75460;BME280;64039;53.060;9.342;2023-06-19T03:21:14;100605.66;;;19.63;73.59
75460;BME280;64039;53.060;9.342;2023-06-19T03:23:39;100604.75;;;19.64;74.47
75460;BME280;64039;53.060;9.342;2023-06-19T03:26:09;100599.53;;;19.62;73.34
75460;BME280;64039;53.060;9.342;2023-06-19T03:28:35;100600.31;;;19.66;72.98
75460;BME280;64039;53.060;9.342;2023-06-19T03:31:00;100602.03;;;19.69;73.02
75460;BME280;64039;53.060;9.342;2023-06-19T03:33:26;100590.53;;;19.71;72.78
75460;BME280;64039;53.060;9.342;2023-06-19T03:35:52;100605.38;;;19.77;72.94
75460;BME280;64039;53.060;9.342;2023-06-19T03:38:17;100603.78;;;19.70;72.12
75460;BME280;64039;53.060;9.342;2023-06-19T03:40:43;100597.50;;;19.74;72.76
75460;BME280;64039;53.060;9.342;2023-06-19T03:43:08;100599.28;;;19.73;72.75
75460;BME280;64039;53.060;9.342;2023-06-19T03:45:34;100596.56;;;19.78;72.76
75460;BME280;64039;53.060;9.342;2023-06-19T03:47:59;100601.84;;;19.78;72.82
75460;BME280;64039;53.060;9.342;2023-06-19T03:50:25;100597.38;;;19.82;72.96
75460;BME280;64039;53.060;9.342;2023-06-19T03:52:50;100608.81;;;19.80;72.91
75460;BME280;64039;53.060;9.342;2023-06-19T03:55:15;100614.06;;;19.82;73.09
75460;BME280;64039;53.060;9.342;2023-06-19T03:57:41;100606.88;;;19.92;74.69
75460;BME280;64039;53.060;9.342;2023-06-19T04:00:07;100608.56;;;19.94;74.92
75460;BME280;64039;53.060;9.342;2023-06-19T04:02:33;100613.56;;;20.08;77.31
75460;BME280;64039;53.060;9.342;2023-06-19T04:04:59;100608.28;;;20.08;76.55
75460;BME280;64039;53.060;9.342;2023-06-19T04:07:25;100609.19;;;20.07;78.18
75460;BME280;64039;53.060;9.342;2023-06-19T04:09:50;100628.63;;;20.03;77.44
75460;BME280;64039;53.060;9.342;2023-06-19T04:12:15;100627.84;;;20.00;79.42
75460;BME280;64039;53.060;9.342;2023-06-19T04:14:41;100642.72;;;20.04;79.71
75460;BME280;64039;53.060;9.342;2023-06-19T04:17:06;100640.22;;;19.98;80.45
75460;BME280;64039;53.060;9.342;2023-06-19T04:19:32;100631.53;;;19.91;79.70
75460;BME280;64039;53.060;9.342;2023-06-19T04:21:57;100631.47;;;19.95;75.47
75460;BME280;64039;53.060;9.342;2023-06-19T04:24:23;100635.69;;;20.03;74.83
75460;BME280;64039;53.060;9.342;2023-06-19T04:26:48;100630.31;;;20.07;73.66
75460;BME280;64039;53.060;9.342;2023-06-19T04:29:14;100636.38;;;20.13;74.31
75460;BME280;64039;53.060;9.342;2023-06-19T04:31:44;100633.81;;;20.09;75.00
75460;BME280;64039;53.060;9.342;2023-06-19T04:34:13;100628.59;;;20.06;75.09
75460;BME280;64039;53.060;9.342;2023-06-19T04:36:40;100639.84;;;20.15;73.94
75460;BME280;64039;53.060;9.342;2023-06-19T04:39:06;100640.66;;;20.18;76.41
75460;BME280;64039;53.060;9.342;2023-06-19T04:41:32;100642.44;;;20.18;79.61
75460;BME280;64039;53.060;9.342;2023-06-19T04:43:57;100640.00;;;20.07;79.50
75460;BME280;64039;53.060;9.342;2023-06-19T04:46:23;100629.53;;;20.04;76.73
75460;BME280;64039;53.060;9.342;2023-06-19T04:48:48;100614.31;;;20.14;76.71
75460;BME280;64039;53.060;9.342;2023-06-19T04:51:17;100614.28;;;20.15;79.81
75460;BME280;64039;53.060;9.342;2023-06-19T04:53:49;100609.19;;;20.07;83.78
75460;BME280;64039;53.060;9.342;2023-06-19T04:56:15;100622.44;;;20.06;85.50
75460;BME280;64039;53.060;9.342;2023-06-19T04:58:41;100629.91;;;19.84;87.94
75460;BME280;64039;53.060;9.342;2023-06-19T05:01:12;100635.50;;;19.67;86.29
75460;BME280;64039;53.060;9.342;2023-06-19T05:03:37;100638.28;;;19.60;86.46
75460;BME280;64039;53.060;9.342;2023-06-19T05:06:03;100634.75;;;19.61;85.06
75460;BME280;64039;53.060;9.342;2023-06-19T05:08:28;100633.81;;;19.64;84.37
75460;BME280;64039;53.060;9.342;2023-06-19T05:10:54;100639.94;;;19.64;84.07
75460;BME280;64039;53.060;9.342;2023-06-19T05:13:20;100630.22;;;19.68;83.28
75460;BME280;64039;53.060;9.342;2023-06-19T05:15:45;100618.75;;;19.68;84.55
75460;BME280;64039;53.060;9.342;2023-06-19T05:18:11;100614.28;;;19.71;84.72
75460;BME280;64039;53.060;9.342;2023-06-19T05:20:36;100618.59;;;19.77;85.88
75460;BME280;64039;53.060;9.342;2023-06-19T05:23:02;100632.63;;;19.79;84.80
75460;BME280;64039;53.060;9.342;2023-06-19T05:25:27;100635.00;;;19.94;81.98
75460;BME280;64039;53.060;9.342;2023-06-19T05:27:53;100634.16;;;19.92;81.30
75460;BME280;64039;53.060;9.342;2023-06-19T05:30:18;100641.88;;;20.02;79.46
75460;BME280;64039;53.060;9.342;2023-06-19T05:32:44;100627.69;;;20.07;79.97
75460;BME280;64039;53.060;9.342;2023-06-19T05:35:09;100624.19;;;20.05;78.89
75460;BME280;64039;53.060;9.342;2023-06-19T05:37:35;100622.16;;;20.18;80.61
75460;BME280;64039;53.060;9.342;2023-06-19T05:40:00;100621.84;;;20.32;79.66
75460;BME280;64039;53.060;9.342;2023-06-19T05:42:25;100630.44;;;20.44;79.74
75460;BME280;64039;53.060;9.342;2023-06-19T05:44:51;100627.38;;;20.61;79.14
75460;BME280;64039;53.060;9.342;2023-06-19T05:47:16;100631.56;;;20.69;78.70
75460;BME280;64039;53.060;9.342;2023-06-19T05:49:44;100633.00;;;20.86;76.55
75460;BME280;64039;53.060;9.342;2023-06-19T05:52:10;100631.09;;;20.91;75.93
75460;BME280;64039;53.060;9.342;2023-06-19T05:54:35;100634.59;;;20.92;76.71
75460;BME280;64039;53.060;9.342;2023-06-19T05:57:01;100629.06;;;21.02;75.32
75460;BME280;64039;53.060;9.342;2023-06-19T05:59:26;100627.78;;;21.17;74.27
75460;BME280;64039;53.060;9.342;2023-06-19T06:01:52;100625.66;;;21.32;72.02
75460;BME280;64039;53.060;9.342;2023-06-19T06:04:18;100631.19;;;21.23;73.20
75460;BME280;64039;53.060;9.342;2023-06-19T06:06:47;100631.13;;;21.24;72.81
75460;BME280;64039;53.060;9.342;2023-06-19T06:09:12;100631.91;;;21.28;72.91
75460;BME280;64039;53.060;9.342;2023-06-19T06:11:38;100639.94;;;21.25;73.56
75460;BME280;64039;53.060;9.342;2023-06-19T06:14:03;100640.47;;;21.38;73.42
75460;BME280;64039;53.060;9.342;2023-06-19T06:16:29;100634.16;;;21.43;72.72
75460;BME280;64039;53.060;9.342;2023-06-19T06:18:54;100642.03;;;21.46;73.22
75460;BME280;64039;53.060;9.342;2023-06-19T06:21:20;100641.78;;;21.56;72.56
75460;BME280;64039;53.060;9.342;2023-06-19T06:23:45;100649.66;;;21.59;72.65
75460;BME280;64039;53.060;9.342;2023-06-19T06:26:13;100650.16;;;21.73;71.90
75460;BME280;64039;53.060;9.342;2023-06-19T06:28:40;100644.44;;;21.56;71.29
75460;BME280;64039;53.060;9.342;2023-06-19T06:31:05;100647.88;;;21.59;72.05
75460;BME280;64039;53.060;9.342;2023-06-19T06:33:30;100646.50;;;21.77;71.63
75460;BME280;64039;53.060;9.342;2023-06-19T06:35:57;100658.53;;;21.89;71.31
75460;BME280;64039;53.060;9.342;2023-06-19T06:38:22;100652.00;;;22.01;70.21
75460;BME280;64039;53.060;9.342;2023-06-19T06:40:48;100657.94;;;22.09;69.91
75460;BME280;64039;53.060;9.342;2023-06-19T06:43:14;100662.06;;;22.20;68.51
75460;BME280;64039;53.060;9.342;2023-06-19T06:45:39;100664.31;;;22.34;67.94
75460;BME280;64039;53.060;9.342;2023-06-19T06:48:07;100664.16;;;22.40;68.47
75460;BME280;64039;53.060;9.342;2023-06-19T06:50:32;100663.94;;;22.48;68.88
75460;BME280;64039;53.060;9.342;2023-06-19T06:52:58;100668.53;;;22.41;68.02
75460;BME280;64039;53.060;9.342;2023-06-19T06:55:23;100681.47;;;22.52;67.62
75460;BME280;64039;53.060;9.342;2023-06-19T06:57:49;100672.59;;;22.53;67.88
75460;BME280;64039;53.060;9.342;2023-06-19T07:00:15;100683.69;;;22.66;67.66
75460;BME280;64039;53.060;9.342;2023-06-19T07:02:40;100681.47;;;22.80;67.42
75460;BME280;64039;53.060;9.342;2023-06-19T07:05:09;100672.81;;;23.02;67.01
75460;BME280;64039;53.060;9.342;2023-06-19T07:07:35;100674.06;;;23.18;65.04
75460;BME280;64039;53.060;9.342;2023-06-19T07:10:01;100668.59;;;23.48;64.45
75460;BME280;64039;53.060;9.342;2023-06-19T07:12:26;100670.13;;;23.81;61.96
75460;BME280;64039;53.060;9.342;2023-06-19T07:14:54;100677.56;;;23.96;62.55
75460;BME280;64039;53.060;9.342;2023-06-19T07:17:20;100678.41;;;23.97;60.43
75460;BME280;64039;53.060;9.342;2023-06-19T07:19:46;100680.59;;;23.85;61.51
75460;BME280;64039;53.060;9.342;2023-06-19T07:22:11;100685.31;;;23.77;59.35
75460;BME280;64039;53.060;9.342;2023-06-19T07:24:37;100686.56;;;23.92;59.85
75460;BME280;64039;53.060;9.342;2023-06-19T07:27:03;100687.28;;;23.97;59.80
75460;BME280;64039;53.060;9.342;2023-06-19T07:29:28;100691.28;;;24.09;59.41
75460;BME280;64039;53.060;9.342;2023-06-19T07:31:54;100696.50;;;24.34;57.94
75460;BME280;64039;53.060;9.342;2023-06-19T07:34:19;100693.75;;;24.38;59.23
75460;BME280;64039;53.060;9.342;2023-06-19T07:36:45;100703.75;;;24.31;58.69
75460;BME280;64039;53.060;9.342;2023-06-19T07:39:10;100699.88;;;24.40;57.83
75460;BME280;64039;53.060;9.342;2023-06-19T07:41:36;100691.09;;;24.38;56.25
75460;BME280;64039;53.060;9.342;2023-06-19T07:44:01;100692.00;;;24.37;56.86
75460;BME280;64039;53.060;9.342;2023-06-19T07:46:27;100695.47;;;24.39;56.85
75460;BME280;64039;53.060;9.342;2023-06-19T07:48:52;100682.06;;;24.42;56.00
75460;BME280;64039;53.060;9.342;2023-06-19T07:51:18;100688.59;;;24.33;55.83
75460;BME280;64039;53.060;9.342;2023-06-19T07:53:43;100681.72;;;24.51;56.35
75460;BME280;64039;53.060;9.342;2023-06-19T07:56:09;100684.94;;;24.59;54.44
75460;BME280;64039;53.060;9.342;2023-06-19T07:58:35;100679.78;;;24.78;54.17
75460;BME280;64039;53.060;9.342;2023-06-19T08:01:00;100676.31;;;24.76;55.33
75460;BME280;64039;53.060;9.342;2023-06-19T08:03:26;100678.66;;;24.84;55.53
75460;BME280;64039;53.060;9.342;2023-06-19T08:05:52;100678.03;;;25.00;53.97
75460;BME280;64039;53.060;9.342;2023-06-19T08:08:18;100687.47;;;25.29;53.29
75460;BME280;64039;53.060;9.342;2023-06-19T08:10:43;100679.88;;;25.40;51.12
75460;BME280;64039;53.060;9.342;2023-06-19T08:13:09;100685.22;;;25.61;52.47
75460;BME280;64039;53.060;9.342;2023-06-19T08:15:36;100692.53;;;25.77;51.44
75460;BME280;64039;53.060;9.342;2023-06-19T08:18:02;100700.19;;;25.00;52.37
75460;BME280;64039;53.060;9.342;2023-06-19T08:20:27;100711.31;;;24.65;53.40
75460;BME280;64039;53.060;9.342;2023-06-19T08:22:53;100699.25;;;24.79;54.15
75460;BME280;64039;53.060;9.342;2023-06-19T08:25:19;100704.53;;;24.80;54.15
75460;BME280;64039;53.060;9.342;2023-06-19T08:27:44;100703.19;;;24.92;54.69
75460;BME280;64039;53.060;9.342;2023-06-19T08:30:13;100699.38;;;24.98;53.61
75460;BME280;64039;53.060;9.342;2023-06-19T08:32:38;100705.06;;;25.11;53.33
75460;BME280;64039;53.060;9.342;2023-06-19T08:35:04;100705.66;;;25.40;53.60
75460;BME280;64039;53.060;9.342;2023-06-19T08:37:30;100698.34;;;25.02;53.00
75460;BME280;64039;53.060;9.342;2023-06-19T08:39:55;100698.31;;;25.24;53.03
75460;BME280;64039;53.060;9.342;2023-06-19T08:42:24;100696.69;;;25.42;53.32
75460;BME280;64039;53.060;9.342;2023-06-19T08:44:50;100701.72;;;25.49;52.43
75460;BME280;64039;53.060;9.342;2023-06-19T08:47:15;100704.94;;;25.78;51.97
75460;BME280;64039;53.060;9.342;2023-06-19T08:49:43;100702.06;;;25.82;52.04
75460;BME280;64039;53.060;9.342;2023-06-19T08:52:08;100697.34;;;25.89;52.73
75460;BME280;64039;53.060;9.342;2023-06-19T08:54:34;100696.38;;;26.11;52.18
75460;BME280;64039;53.060;9.342;2023-06-19T08:57:09;100694.38;;;25.95;51.94
75460;BME280;64039;53.060;9.342;2023-06-19T08:59:35;100690.19;;;26.29;51.42
75460;BME280;64039;53.060;9.342;2023-06-19T09:02:00;100690.69;;;26.38;51.28
75460;BME280;64039;53.060;9.342;2023-06-19T09:04:27;100688.88;;;26.57;50.88
75460;BME280;64039;53.060;9.342;2023-06-19T09:06:56;100696.50;;;26.84;50.97
75460;BME280;64039;53.060;9.342;2023-06-19T09:09:23;100688.44;;;26.86;50.52
75460;BME280;64039;53.060;9.342;2023-06-19T09:14:38;100696.53;;;26.46;51.01
75460;BME280;64039;53.060;9.342;2023-06-19T09:17:06;100699.84;;;26.89;51.92
75460;BME280;64039;53.060;9.342;2023-06-19T09:19:34;100694.44;;;27.08;51.42
75460;BME280;64039;53.060;9.342;2023-06-19T09:22:06;100698.31;;;27.38;50.74
75460;BME280;64039;53.060;9.342;2023-06-19T09:24:37;100695.28;;;27.09;49.88
75460;BME280;64039;53.060;9.342;2023-06-19T09:27:14;100702.13;;;26.97;51.33
75460;BME280;64039;53.060;9.342;2023-06-19T09:29:42;100694.31;;;26.92;51.08
75460;BME280;64039;53.060;9.342;2023-06-19T09:32:18;100704.44;;;27.22;50.84
75460;BME280;64039;53.060;9.342;2023-06-19T09:34:44;100701.44;;;27.28;50.47
75460;BME280;64039;53.060;9.342;2023-06-19T09:37:10;100703.28;;;27.45;49.96
75460;BME280;64039;53.060;9.342;2023-06-19T09:39:40;100701.25;;;27.51;49.79
75460;BME280;64039;53.060;9.342;2023-06-19T09:42:07;100704.75;;;27.69;50.22
75460;BME280;64039;53.060;9.342;2023-06-19T09:44:42;100704.13;;;27.28;50.95
75460;BME280;64039;53.060;9.342;2023-06-19T09:47:18;100717.16;;;26.80;51.81
75460;BME280;64039;53.060;9.342;2023-06-19T09:49:49;100719.09;;;26.58;52.26
75460;BME280;64039;53.060;9.342;2023-06-19T09:52:19;100716.94;;;26.66;52.41
75460;BME280;64039;53.060;9.342;2023-06-19T09:54:46;100715.28;;;26.63;53.31
75460;BME280;64039;53.060;9.342;2023-06-19T09:57:11;100721.25;;;26.88;53.35
75460;BME280;64039;53.060;9.342;2023-06-19T09:59:39;100721.47;;;26.83;53.52
75460;BME280;64039;53.060;9.342;2023-06-19T10:02:07;100715.91;;;26.88;53.12
75460;BME280;64039;53.060;9.342;2023-06-19T10:04:50;100711.28;;;27.10;52.87
75460;BME280;64039;53.060;9.342;2023-06-19T10:07:35;100724.28;;;27.53;52.60
75460;BME280;64039;53.060;9.342;2023-06-19T10:10:09;100726.19;;;27.32;52.96
75460;BME280;64039;53.060;9.342;2023-06-19T10:12:45;100724.75;;;27.44;52.88
75460;BME280;64039;53.060;9.342;2023-06-19T10:15:18;100732.66;;;27.63;53.05
75460;BME280;64039;53.060;9.342;2023-06-19T10:23:13;100731.91;;;27.24;53.39
75460;BME280;64039;53.060;9.342;2023-06-19T10:25:47;100731.94;;;27.42;54.58
75460;BME280;64039;53.060;9.342;2023-06-19T10:30:43;100730.09;;;26.51;55.08
75460;BME280;64039;53.060;9.342;2023-06-19T10:33:09;100730.59;;;26.60;55.44
75460;BME280;64039;53.060;9.342;2023-06-19T10:35:38;100731.81;;;26.72;54.88
75460;BME280;64039;53.060;9.342;2023-06-19T10:38:05;100730.50;;;26.61;55.63
75460;BME280;64039;53.060;9.342;2023-06-19T10:40:30;100727.47;;;26.69;54.50
75460;BME280;64039;53.060;9.342;2023-06-19T10:42:55;100738.94;;;26.71;54.51
75460;BME280;64039;53.060;9.342;2023-06-19T10:45:21;100740.31;;;26.42;55.25
75460;BME280;64039;53.060;9.342;2023-06-19T10:47:55;100740.53;;;26.56;55.81
75460;BME280;64039;53.060;9.342;2023-06-19T10:50:22;100737.78;;;26.58;55.77
75460;BME280;64039;53.060;9.342;2023-06-19T10:52:48;100747.75;;;26.54;56.23
75460;BME280;64039;53.060;9.342;2023-06-19T10:55:17;100740.50;;;26.37;56.11
75460;BME280;64039;53.060;9.342;2023-06-19T10:57:45;100747.88;;;26.32;55.93
75460;BME280;64039;53.060;9.342;2023-06-19T11:00:11;100747.09;;;26.49;56.44
75460;BME280;64039;53.060;9.342;2023-06-19T11:02:47;100755.69;;;26.16;56.05
75460;BME280;64039;53.060;9.342;2023-06-19T11:05:13;100748.44;;;26.19;55.96
75460;BME280;64039;53.060;9.342;2023-06-19T11:07:39;100746.56;;;26.41;55.11
75460;BME280;64039;53.060;9.342;2023-06-19T11:10:05;100747.81;;;26.33;55.66
75460;BME280;64039;53.060;9.342;2023-06-19T11:12:32;100760.09;;;26.38;55.78
75460;BME280;64039;53.060;9.342;2023-06-19T11:15:03;100747.03;;;26.50;54.72
75460;BME280;64039;53.060;9.342;2023-06-19T11:17:30;100745.16;;;26.72;54.29
75460;BME280;64039;53.060;9.342;2023-06-19T11:19:56;100746.19;;;26.88;54.77
75460;BME280;64039;53.060;9.342;2023-06-19T11:22:22;100745.59;;;26.62;55.11
75460;BME280;64039;53.060;9.342;2023-06-19T11:24:47;100751.13;;;26.96;54.71
75460;BME280;64039;53.060;9.342;2023-06-19T11:27:18;100756.59;;;27.12;54.52
75460;BME280;64039;53.060;9.342;2023-06-19T11:29:44;100751.00;;;26.99;54.50
75460;BME280;64039;53.060;9.342;2023-06-19T11:32:13;100756.50;;;27.13;55.22
75460;BME280;64039;53.060;9.342;2023-06-19T11:34:39;100768.78;;;27.18;53.66
75460;BME280;64039;53.060;9.342;2023-06-19T11:37:16;100770.22;;;26.88;54.35
75460;BME280;64039;53.060;9.342;2023-06-19T11:39:44;100776.91;;;26.59;54.81
75460;BME280;64039;53.060;9.342;2023-06-19T11:42:10;100766.34;;;26.36;55.47
75460;BME280;64039;53.060;9.342;2023-06-19T11:44:35;100762.91;;;26.73;55.55
75460;BME280;64039;53.060;9.342;2023-06-19T11:47:18;100765.09;;;26.83;54.08
75460;BME280;64039;53.060;9.342;2023-06-19T11:49:47;100759.88;;;26.61;53.95
75460;BME280;64039;53.060;9.342;2023-06-19T11:52:13;100761.69;;;26.80;53.94
75460;BME280;64039;53.060;9.342;2023-06-19T11:54:39;100775.06;;;27.17;53.93
75460;BME280;64039;53.060;9.342;2023-06-19T11:57:05;100769.59;;;27.20;52.55
75460;BME280;64039;53.060;9.342;2023-06-19T11:59:31;100759.50;;;27.44;51.98
75460;BME280;64039;53.060;9.342;2023-06-19T12:01:56;100780.44;;;28.04;52.08
75460;BME280;64039;53.060;9.342;2023-06-19T12:04:24;100786.38;;;27.93;50.94
75460;BME280;64039;53.060;9.342;2023-06-19T12:06:49;100779.31;;;27.75;51.93
75460;BME280;64039;53.060;9.342;2023-06-19T12:09:15;100782.47;;;27.66;52.66
75460;BME280;64039;53.060;9.342;2023-06-19T12:11:40;100779.78;;;27.29;52.23
75460;BME280;64039;53.060;9.342;2023-06-19T12:14:06;100772.31;;;27.55;51.30
75460;BME280;64039;53.060;9.342;2023-06-19T12:16:31;100782.88;;;27.39;52.50
75460;BME280;64039;53.060;9.342;2023-06-19T12:18:57;100780.41;;;27.53;51.37
75460;BME280;64039;53.060;9.342;2023-06-19T12:21:22;100784.81;;;27.89;50.61
75460;BME280;64039;53.060;9.342;2023-06-19T12:23:48;100798.19;;;27.89;50.20
75460;BME280;64039;53.060;9.342;2023-06-19T12:26:13;100794.16;;;27.45;50.97
75460;BME280;64039;53.060;9.342;2023-06-19T12:28:39;100789.75;;;27.80;51.09
75460;BME280;64039;53.060;9.342;2023-06-19T12:31:04;100798.25;;;27.70;51.21
75460;BME280;64039;53.060;9.342;2023-06-19T12:33:30;100812.41;;;27.55;51.94
75460;BME280;64039;53.060;9.342;2023-06-19T12:35:56;100821.50;;;27.14;51.86
75460;BME280;64039;53.060;9.342;2023-06-19T12:38:22;100817.06;;;26.76;52.63
75460;BME280;64039;53.060;9.342;2023-06-19T12:40:47;100814.91;;;26.85;53.17
75460;BME280;64039;53.060;9.342;2023-06-19T12:43:12;100803.09;;;26.89;52.82
75460;BME280;64039;53.060;9.342;2023-06-19T12:45:38;100822.06;;;26.44;54.80
75460;BME280;64039;53.060;9.342;2023-06-19T12:48:04;100807.22;;;26.96;53.63
75460;BME280;64039;53.060;9.342;2023-06-19T12:50:29;100808.94;;;26.97;53.68
75460;BME280;64039;53.060;9.342;2023-06-19T12:52:55;100812.84;;;27.28;53.04
75460;BME280;64039;53.060;9.342;2023-06-19T12:55:20;100806.59;;;27.27;52.85
75460;BME280;64039;53.060;9.342;2023-06-19T12:57:46;100810.78;;;27.33;52.75
75460;BME280;64039;53.060;9.342;2023-06-19T13:00:12;100812.50;;;27.71;52.44
75460;BME280;64039;53.060;9.342;2023-06-19T13:02:38;100816.34;;;27.83;52.08